Time;durP1;ratioP1;P1;durP2;ratioP2;P2;SDS_P1;SDS_P2;PMS_P1;PMS_P2;Temp;Humidity;BMP_temperature;BMP_pressure;BME280_temperature;BME280_humidity;BME280_pressure;Samples;Min_cycle;Max_cycle;Signal;HPM_P1;HPM_P2
2023/03/13 00:01:40;;;;;;;;;;;8.00;99.90;;;;;;5021993;28;1201;-67
2023/03/13 00:04:06;;;;;;;;;;;8.00;99.90;;;;;;5017334;28;1323;-67
2023/03/13 00:06:34;;;;;;;;;;;8.00;99.90;;;;;;5026002;28;1165;-67
2023/03/13 00:09:00;;;;;;;;;;;8.00;99.90;;;;;;5027408;28;1325;-67
2023/03/13 00:11:26;;;;;;;;;;;8.20;99.90;;;;;;5026078;28;1910;-67
2023/03/13 00:13:54;;;;;;;;;;;8.20;99.90;;;;;;5028308;28;1113;-67
2023/03/13 00:16:19;;;;;;;;;;;8.20;99.90;;;;;;5028802;28;1303;-67
2023/03/13 00:18:46;;;;;;;;;;;8.20;99.90;;;;;;5027447;28;1125;-67
2023/03/13 00:21:12;;;;;;;;;;;8.20;99.90;;;;;;4995246;28;1701;-67
2023/03/13 00:23:38;;;;;;;;;;;8.20;99.90;;;;;;5015235;28;1148;-68
2023/03/13 00:26:05;;;;;;;;;;;8.10;99.90;;;;;;5008783;28;1217;-67
2023/03/13 00:28:32;;;;;;;;;;;8.10;99.90;;;;;;5008116;28;1229;-67
2023/03/13 00:31:01;;;;;;;;;;;8.10;99.90;;;;;;5014525;28;1910;-67
2023/03/13 00:33:26;;;;;;;;;;;8.00;99.90;;;;;;5028738;28;1160;-67
2023/03/13 00:35:56;;;;;;;;;;;7.90;99.90;;;;;;5021248;28;1250;-67
2023/03/13 00:38:22;;;;;;;;;;;7.90;99.90;;;;;;5014609;28;1308;-67
2023/03/13 00:40:47;;;;;;;;;;;7.80;99.90;;;;;;5021607;28;1211;-67
2023/03/13 00:43:13;;;;;;;;;;;7.90;99.90;;;;;;5012037;28;1336;-67
2023/03/13 00:45:39;;;;;;;;;;;7.80;99.90;;;;;;5020387;28;1240;-67
2023/03/13 00:48:04;;;;;;;;;;;7.80;99.90;;;;;;5019761;28;1267;-67
2023/03/13 00:50:30;;;;;;;;;;;7.90;99.90;;;;;;5002036;28;1914;-67
2023/03/13 00:52:56;;;;;;;;;;;7.80;99.90;;;;;;5022950;28;1201;-67
2023/03/13 00:55:21;;;;;;;;;;;7.80;99.90;;;;;;5020858;28;1322;-67
2023/03/13 00:57:47;;;;;;;;;;;7.80;99.90;;;;;;5024050;28;1172;-67
2023/03/13 01:00:15;;;;;;;;;;;7.80;99.90;;;;;;5000705;28;1073;-67
2023/03/13 01:02:41;;;;;;;;;;;7.80;99.90;;;;;;5001658;28;1094;-67
2023/03/13 01:05:08;;;;;;;;;;;7.80;99.90;;;;;;5001980;28;1167;-67
2023/03/13 01:07:34;;;;;;;;;;;7.80;99.90;;;;;;5040541;28;1133;-67
2023/03/13 01:10:00;;;;;;;;;;;7.80;99.90;;;;;;5006385;28;1922;-67
2023/03/13 01:12:26;;;;;;;;;;;7.80;99.90;;;;;;5029122;28;1089;-67
2023/03/13 01:14:52;;;;;;;;;;;7.80;99.90;;;;;;5001158;28;1185;-67
2023/03/13 01:17:21;;;;;;;;;;;7.80;99.90;;;;;;5016580;28;1114;-67
2023/03/13 01:19:46;;;;;;;;;;;7.80;99.90;;;;;;5010824;28;1157;-67
2023/03/13 01:22:12;;;;;;;;;;;7.90;99.90;;;;;;5008536;28;1305;-67
2023/03/13 01:24:38;;;;;;;;;;;7.80;99.90;;;;;;5013537;28;1117;-67
2023/03/13 01:27:03;;;;;;;;;;;7.80;99.90;;;;;;5012621;28;1097;-67
2023/03/13 01:29:29;;;;;;;;;;;7.90;99.90;;;;;;5030484;28;1215;-67
2023/03/13 01:31:55;;;;;;;;;;;7.80;99.90;;;;;;5013274;28;1926;-67
2023/03/13 01:34:20;;;;;;;;;;;7.90;99.90;;;;;;5012324;28;1121;-67
2023/03/13 01:36:49;;;;;;;;;;;7.90;99.90;;;;;;5030677;28;1175;-67
2023/03/13 01:39:15;;;;;;;;;;;7.90;99.90;;;;;;5012583;28;1202;-67
2023/03/13 01:41:41;;;;;;;;;;;7.90;99.90;;;;;;4995895;28;1134;-67
2023/03/13 01:44:18;;;;;;;;;;;7.90;99.90;;;;;;5012903;28;1145;-67
2023/03/13 01:46:45;;;;;;;;;;;7.90;99.90;;;;;;5025634;28;1279;-67
2023/03/13 01:49:33;;;;;;;;;;;8.00;99.90;;;;;;5021273;28;1106;-67
2023/03/13 01:52:16;;;;;;;;;;;7.90;99.90;;;;;;5021562;28;1113;-67
2023/03/13 01:55:01;;;;;;;;;;;7.90;99.90;;;;;;5009539;28;1500;-67
2023/03/13 01:57:27;;;;;;;;;;;7.80;99.90;;;;;;5015262;28;1238;-67
2023/03/13 01:59:58;;;;;;;;;;;7.90;99.90;;;;;;5030436;28;1176;-67
2023/03/13 02:02:24;;;;;;;;;;;7.80;99.90;;;;;;5030014;28;1177;-67
2023/03/13 02:04:52;;;;;;;;;;;7.90;99.90;;;;;;5028155;28;1137;-67
2023/03/13 02:07:22;;;;;;;;;;;7.90;99.90;;;;;;5039733;28;1202;-67
2023/03/13 02:09:51;;;;;;;;;;;7.80;99.90;;;;;;5015222;28;1915;-67
2023/03/13 02:12:20;;;;;;;;;;;7.80;99.90;;;;;;5005655;28;1110;-67
2023/03/13 02:14:47;;;;;;;;;;;7.90;99.90;;;;;;5005336;28;1187;-67
2023/03/13 02:17:13;;;;;;;;;;;7.90;99.90;;;;;;5011847;28;983;-67
2023/03/13 02:19:42;;;;;;;;;;;7.90;99.90;;;;;;4999474;28;1197;-67
2023/03/13 02:22:15;;;;;;;;;;;7.90;99.90;;;;;;5009725;28;1322;-67
2023/03/13 02:24:47;;;;;;;;;;;7.90;99.90;;;;;;5009926;28;1106;-67
2023/03/13 02:27:13;;;;;;;;;;;8.00;99.90;;;;;;5005582;28;1141;-67
2023/03/13 02:29:40;;;;;;;;;;;8.00;99.90;;;;;;4992721;28;1914;-68
2023/03/13 02:32:06;;;;;;;;;;;8.10;99.90;;;;;;4996686;28;1102;-67
2023/03/13 02:34:33;;;;;;;;;;;8.10;99.90;;;;;;5000980;28;1149;-67
2023/03/13 02:36:59;;;;;;;;;;;8.10;99.90;;;;;;4996631;28;1093;-67
2023/03/13 02:39:25;;;;;;;;;;;8.20;99.90;;;;;;5005106;28;1109;-67
2023/03/13 02:41:52;;;;;;;;;;;8.10;99.90;;;;;;4993282;28;1320;-67
2023/03/13 02:44:17;;;;;;;;;;;8.20;99.90;;;;;;5001342;28;1260;-68
2023/03/13 02:46:46;;;;;;;;;;;8.10;99.90;;;;;;5029606;28;1180;-67
2023/03/13 02:49:18;;;;;;;;;;;8.20;99.90;;;;;;5010988;28;1113;-67
2023/03/13 02:51:45;;;;;;;;;;;8.20;99.90;;;;;;5011446;28;1906;-67
2023/03/13 02:54:14;;;;;;;;;;;8.10;99.90;;;;;;5006437;28;1296;-67
2023/03/13 02:56:42;;;;;;;;;;;8.10;99.90;;;;;;5011468;28;1114;-67
2023/03/13 02:59:09;;;;;;;;;;;8.10;99.90;;;;;;4994074;28;1163;-67
2023/03/13 03:01:38;;;;;;;;;;;8.10;99.90;;;;;;4992286;28;1184;-67
2023/03/13 03:04:04;;;;;;;;;;;8.00;99.90;;;;;;5010364;28;1304;-67
2023/03/13 03:06:30;;;;;;;;;;;8.00;99.90;;;;;;5006424;28;1141;-67
2023/03/13 03:08:56;;;;;;;;;;;8.00;99.90;;;;;;5009104;28;1313;-67
2023/03/13 03:11:23;;;;;;;;;;;8.00;99.90;;;;;;4993402;28;1910;-67
2023/03/13 03:13:57;;;;;;;;;;;8.00;99.90;;;;;;5004230;28;1208;-67
2023/03/13 03:16:25;;;;;;;;;;;8.10;99.90;;;;;;4998658;28;1156;-67
2023/03/13 03:18:50;;;;;;;;;;;8.10;99.90;;;;;;5010839;28;1118;-67
2023/03/13 03:21:16;;;;;;;;;;;8.10;99.90;;;;;;4998181;28;1336;-67
2023/03/13 03:23:42;;;;;;;;;;;8.10;99.90;;;;;;5011673;28;1168;-67
2023/03/13 03:26:07;;;;;;;;;;;8.10;99.90;;;;;;5021274;28;1145;-67
2023/03/13 03:28:33;;;;;;;;;;;8.20;99.90;;;;;;5004318;28;1007;-67
2023/03/13 03:31:03;;;;;;;;;;;8.10;99.90;;;;;;4982789;28;1981;-67
2023/03/13 03:33:29;;;;;;;;;;;8.10;99.90;;;;;;5018239;28;1145;-67
2023/03/13 03:35:58;;;;;;;;;;;8.10;99.90;;;;;;5012072;28;1137;-67
2023/03/13 03:38:24;;;;;;;;;;;8.20;99.90;;;;;;5024654;28;1113;-67
2023/03/13 03:40:50;;;;;;;;;;;8.20;99.90;;;;;;4990535;28;1149;-67
2023/03/13 03:43:15;;;;;;;;;;;8.20;99.90;;;;;;5020854;28;1168;-67
2023/03/13 03:45:41;;;;;;;;;;;8.10;99.90;;;;;;5027752;28;1113;-67
2023/03/13 03:48:07;;;;;;;;;;;8.20;99.90;;;;;;5020718;28;1207;-67
2023/03/13 03:50:32;;;;;;;;;;;8.30;99.90;;;;;;5006209;28;1973;-67
2023/03/13 03:53:00;;;;;;;;;;;8.30;99.90;;;;;;5020003;28;1211;-67
2023/03/13 03:55:26;;;;;;;;;;;8.30;99.90;;;;;;5017066;28;1232;-67
2023/03/13 03:57:52;;;;;;;;;;;8.30;99.90;;;;;;5008557;28;1208;-67
2023/03/13 04:00:30;;;;;;;;;;;8.30;99.90;;;;;;4986437;28;1221;-67
2023/03/13 04:02:57;;;;;;;;;;;8.30;99.90;;;;;;5007061;28;1217;-67
2023/03/13 04:05:23;;;;;;;;;;;8.40;99.90;;;;;;4999708;28;1268;-67
2023/03/13 04:07:49;;;;;;;;;;;8.40;99.90;;;;;;5003967;28;1225;-67
2023/03/13 04:10:15;;;;;;;;;;;8.40;99.90;;;;;;5001294;28;1999;-67
2023/03/13 04:12:43;;;;;;;;;;;8.40;99.90;;;;;;4998942;28;1221;-67
2023/03/13 04:15:09;;;;;;;;;;;8.40;99.90;;;;;;5002245;28;1177;-67
2023/03/13 04:17:35;;;;;;;;;;;8.40;99.90;;;;;;5011861;28;1024;-67
2023/03/13 04:20:03;;;;;;;;;;;8.40;99.90;;;;;;5014942;28;1099;-67
2023/03/13 04:22:30;;;;;;;;;;;8.40;99.90;;;;;;5019795;28;1329;-67
2023/03/13 04:24:58;;;;;;;;;;;8.40;99.90;;;;;;5031432;28;1156;-67
2023/03/13 04:27:24;;;;;;;;;;;8.50;99.90;;;;;;5023338;28;1110;-67
2023/03/13 04:29:51;;;;;;;;;;;8.50;99.90;;;;;;5013882;28;1970;-67
2023/03/13 04:32:35;;;;;;;;;;;8.60;99.90;;;;;;5032107;28;1240;-67
2023/03/13 04:35:30;;;;;;;;;;;8.50;99.90;;;;;;5027282;28;1082;-67
2023/03/13 04:38:17;;;;;;;;;;;8.50;99.90;;;;;;5020161;28;1084;-68
2023/03/13 04:41:01;;;;;;;;;;;8.60;99.90;;;;;;5003506;28;1252;-67
2023/03/13 04:43:39;;;;;;;;;;;8.80;99.90;;;;;;5013513;28;1134;-67
2023/03/13 04:46:29;;;;;;;;;;;8.70;99.90;;;;;;5016333;28;994;-67
2023/03/13 04:49:24;;;;;;;;;;;8.70;99.90;;;;;;5005909;28;1122;-67
2023/03/13 04:52:12;;;;;;;;;;;8.90;99.90;;;;;;4997059;28;1104;-67
2023/03/13 04:55:08;;;;;;;;;;;9.00;99.90;;;;;;5011258;28;1215;-67
2023/03/13 04:57:43;;;;;;;;;;;9.20;99.90;;;;;;5007296;28;1114;-67
2023/03/13 05:00:25;;;;;;;;;;;9.30;99.90;;;;;;5003460;28;1120;-67
2023/03/13 05:03:10;;;;;;;;;;;9.40;99.90;;;;;;5025505;28;1117;-68
2023/03/13 05:05:44;;;;;;;;;;;9.40;99.90;;;;;;5011394;28;1106;-68
2023/03/13 05:08:30;;;;;;;;;;;9.20;99.90;;;;;;5020107;28;1111;-67
2023/03/13 05:11:06;;;;;;;;;;;9.40;99.90;;;;;;5007904;28;1914;-67
2023/03/13 05:13:46;;;;;;;;;;;9.50;99.90;;;;;;5029446;28;1142;-67
2023/03/13 05:16:29;;;;;;;;;;;9.40;99.90;;;;;;5013541;28;1106;-68
2023/03/13 05:19:29;;;;;;;;;;;9.50;99.90;;;;;;5029483;28;1139;-67
2023/03/13 05:22:14;;;;;;;;;;;9.50;99.90;;;;;;5011103;28;1294;-67
2023/03/13 05:25:05;;;;;;;;;;;9.60;99.90;;;;;;5029886;28;1101;-67
2023/03/13 05:27:41;;;;;;;;;;;9.60;99.90;;;;;;5028980;28;1169;-67
2023/03/13 05:30:26;;;;;;;;;;;9.70;99.90;;;;;;5014239;28;1914;-68
2023/03/13 05:33:03;;;;;;;;;;;9.70;99.90;;;;;;5003054;28;1106;-67
2023/03/13 05:35:54;;;;;;;;;;;9.60;99.90;;;;;;5013043;28;1112;-67
2023/03/13 05:38:28;;;;;;;;;;;9.80;99.90;;;;;;5016262;28;1093;-67
2023/03/13 05:41:10;;;;;;;;;;;9.80;99.90;;;;;;5010336;28;1228;-67
2023/03/13 05:43:36;;;;;;;;;;;10.00;99.90;;;;;;5014066;28;1164;-68
2023/03/13 05:46:07;;;;;;;;;;;10.10;99.90;;;;;;4992880;28;1113;-68
2023/03/13 05:48:51;;;;;;;;;;;10.10;99.90;;;;;;5012162;28;1125;-68
2023/03/13 05:51:41;;;;;;;;;;;10.20;99.90;;;;;;5028552;28;1910;-68
2023/03/13 05:54:25;;;;;;;;;;;10.20;99.90;;;;;;5020131;28;1170;-68
2023/03/13 05:57:03;;;;;;;;;;;10.10;99.90;;;;;;5022574;28;1272;-68
2023/03/13 05:59:45;;;;;;;;;;;10.30;99.90;;;;;;5007084;28;1141;-68
2023/03/13 06:02:32;;;;;;;;;;;10.40;99.90;;;;;;5018024;28;1229;-68
2023/03/13 06:05:00;;;;;;;;;;;;;;;;;;5008451;28;1138;-68
2023/03/13 06:07:26;;;;;;;;;;;10.50;99.90;;;;;;5001970;28;1044;-68
2023/03/13 06:09:52;;;;;;;;;;;10.60;99.90;;;;;;4980517;28;1917;-69
2023/03/13 06:12:18;;;;;;;;;;;10.60;99.90;;;;;;5011447;28;1209;-69
2023/03/13 06:14:44;;;;;;;;;;;10.70;99.90;;;;;;5023693;28;1299;-68
2023/03/13 06:17:29;;;;;;;;;;;10.70;99.90;;;;;;5024066;28;1308;-69
2023/03/13 06:19:54;;;;;;;;;;;10.60;99.90;;;;;;5002366;28;1260;-69
2023/03/13 06:22:20;;;;;;;;;;;10.70;99.90;;;;;;5015917;28;1367;-69
2023/03/13 06:24:48;;;;;;;;;;;10.60;99.90;;;;;;5018952;28;1188;-69
2023/03/13 06:27:14;;;;;;;;;;;10.60;99.90;;;;;;5018917;28;1295;-70
2023/03/13 06:29:40;;;;;;;;;;;10.60;99.90;;;;;;5019001;28;1081;-70
2023/03/13 06:32:05;;;;;;;;;;;10.70;99.90;;;;;;5000027;28;1969;-70
2023/03/13 06:34:31;;;;;;;;;;;10.80;99.90;;;;;;5020150;28;1280;-69
2023/03/13 06:36:57;;;;;;;;;;;10.60;99.90;;;;;;5014754;28;1225;-69
2023/03/13 06:39:23;;;;;;;;;;;10.60;99.90;;;;;;5018064;28;1311;-70
2023/03/13 06:41:49;;;;;;;;;;;10.70;99.90;;;;;;5000124;28;1240;-70
2023/03/13 06:44:14;;;;;;;;;;;10.70;99.90;;;;;;4990845;28;1150;-70
2023/03/13 06:46:40;;;;;;;;;;;10.60;99.90;;;;;;4999888;28;1228;-70
2023/03/13 06:49:06;;;;;;;;;;;10.60;99.90;;;;;;4995336;28;1209;-70
2023/03/13 06:51:31;;;;;;;;;;;10.50;99.90;;;;;;4988020;28;1981;-70
2023/03/13 06:53:57;;;;;;;;;;;10.70;99.90;;;;;;5000989;28;1240;-70
2023/03/13 06:56:23;;;;;;;;;;;10.60;99.90;;;;;;4994151;28;1119;-71
2023/03/13 06:58:49;;;;;;;;;;;10.60;99.90;;;;;;4998230;28;1153;-71
2023/03/13 07:01:15;;;;;;;;;;;10.60;99.90;;;;;;5007838;28;2042;-71
2023/03/13 07:03:41;;;;;;;;;;;10.70;99.90;;;;;;5008627;28;1093;-71
2023/03/13 07:06:07;;;;;;;;;;;10.60;99.90;;;;;;5009003;28;1121;-71
2023/03/13 07:08:33;;;;;;;;;;;10.50;99.90;;;;;;5011750;28;1116;-71
2023/03/13 07:11:00;;;;;;;;;;;10.60;99.90;;;;;;4993986;28;1906;-71
2023/03/13 07:13:26;;;;;;;;;;;10.60;99.90;;;;;;4988454;28;1157;-71
2023/03/13 07:15:52;;;;;;;;;;;10.60;99.90;;;;;;5000038;28;1110;-71
2023/03/13 07:18:18;;;;;;;;;;;10.60;99.90;;;;;;4998927;28;1284;-71
2023/03/13 07:20:44;;;;;;;;;;;10.70;99.90;;;;;;4998458;28;1142;-71
2023/03/13 07:23:10;;;;;;;;;;;10.60;99.90;;;;;;4997223;28;1228;-71
2023/03/13 07:25:35;;;;;;;;;;;10.70;99.90;;;;;;4996110;28;1288;-71
2023/03/13 07:28:01;;;;;;;;;;;10.70;99.90;;;;;;4998112;28;1295;-71
2023/03/13 07:30:27;;;;;;;;;;;10.70;99.90;;;;;;4993925;28;1910;-71
2023/03/13 07:32:52;;;;;;;;;;;10.80;99.90;;;;;;4989113;28;1155;-71
2023/03/13 07:35:18;;;;;;;;;;;10.60;99.90;;;;;;4989288;28;1316;-70
2023/03/13 07:37:44;;;;;;;;;;;10.70;99.90;;;;;;5002088;28;1035;-70
2023/03/13 07:40:10;;;;;;;;;;;10.70;99.90;;;;;;5008361;28;1268;-70
2023/03/13 07:42:38;;;;;;;;;;;10.70;99.90;;;;;;5020740;28;1213;-70
2023/03/13 07:45:04;;;;;;;;;;;10.70;99.90;;;;;;5004202;28;1112;-70
2023/03/13 07:47:30;;;;;;;;;;;10.70;99.90;;;;;;5008533;28;1213;-70
2023/03/13 07:49:55;;;;;;;;;;;10.80;99.90;;;;;;5011521;28;1911;-70
2023/03/13 07:52:21;;;;;;;;;;;10.70;99.90;;;;;;5032552;28;1093;-70
2023/03/13 07:54:47;;;;;;;;;;;10.70;99.90;;;;;;5016507;28;1208;-70
2023/03/13 07:57:13;;;;;;;;;;;10.60;99.90;;;;;;5013189;28;1094;-70
2023/03/13 07:59:38;;;;;;;;;;;10.70;99.90;;;;;;5023104;28;1101;-70
2023/03/13 08:02:04;;;;;;;;;;;10.60;99.90;;;;;;5032078;28;1021;-70
2023/03/13 08:04:30;;;;;;;;;;;10.70;99.90;;;;;;5032781;28;1081;-70
2023/03/13 08:06:56;;;;;;;;;;;10.70;99.90;;;;;;5033360;28;1097;-70
2023/03/13 08:09:21;;;;;;;;;;;10.60;99.90;;;;;;5021227;28;1396;-70
2023/03/13 08:11:47;;;;;;;;;;;10.70;99.90;;;;;;5012982;28;1953;-70
2023/03/13 08:14:13;;;;;;;;;;;10.70;99.90;;;;;;4997527;28;1102;-70
2023/03/13 08:16:39;;;;;;;;;;;10.70;99.90;;;;;;5019673;28;1244;-71
2023/03/13 08:19:04;;;;;;;;;;;10.80;99.90;;;;;;5021513;28;1271;-71
2023/03/13 08:21:31;;;;;;;;;;;10.70;99.90;;;;;;5020071;28;1364;-71
2023/03/13 08:23:58;;;;;;;;;;;10.70;99.90;;;;;;5020975;28;1229;-71
2023/03/13 08:26:25;;;;;;;;;;;10.70;99.90;;;;;;5005736;28;2309;-70
2023/03/13 08:28:53;;;;;;;;;;;10.80;99.90;;;;;;5017743;28;1196;-71
2023/03/13 08:31:20;;;;;;;;;;;10.70;99.90;;;;;;5012501;28;1930;-71
2023/03/13 08:33:46;;;;;;;;;;;10.70;99.90;;;;;;5012112;28;1082;-71
2023/03/13 08:36:14;;;;;;;;;;;10.70;99.90;;;;;;5030992;28;1196;-71
2023/03/13 08:38:43;;;;;;;;;;;10.70;99.90;;;;;;4999736;28;1254;-71
2023/03/13 08:41:09;;;;;;;;;;;10.70;99.90;;;;;;5012001;28;1282;-71
2023/03/13 08:43:35;;;;;;;;;;;10.70;99.90;;;;;;5016847;28;1312;-71
2023/03/13 08:46:00;;;;;;;;;;;10.70;99.90;;;;;;5014742;28;1164;-71
2023/03/13 08:48:26;;;;;;;;;;;10.80;99.90;;;;;;5023236;28;1279;-71
2023/03/13 08:51:05;;;;;;;;;;;10.80;99.90;;;;;;5021762;28;1918;-71
2023/03/13 08:53:31;;;;;;;;;;;11.00;99.90;;;;;;5026630;28;1181;-71
2023/03/13 08:55:57;;;;;;;;;;;11.00;99.90;;;;;;5011875;28;1103;-72
2023/03/13 08:58:23;;;;;;;;;;;11.10;99.90;;;;;;5010852;28;1117;-72
2023/03/13 09:00:48;;;;;;;;;;;11.20;99.90;;;;;;5022506;28;1120;-72
2023/03/13 09:03:14;;;;;;;;;;;11.30;99.90;;;;;;5012998;28;1101;-72
2023/03/13 09:05:40;;;;;;;;;;;11.30;99.90;;;;;;5011254;28;1175;-72
2023/03/13 09:08:05;;;;;;;;;;;11.40;99.90;;;;;;5025066;28;1094;-72
2023/03/13 09:10:33;;;;;;;;;;;11.40;99.90;;;;;;5026456;28;1978;-72
2023/03/13 09:12:58;;;;;;;;;;;11.50;99.90;;;;;;5001364;28;3113;-72
2023/03/13 09:15:24;;;;;;;;;;;11.70;99.90;;;;;;5021380;28;3274;-72
2023/03/13 09:17:50;;;;;;;;;;;11.70;99.90;;;;;;5027645;28;3128;-72
2023/03/13 09:20:17;;;;;;;;;;;11.80;99.90;;;;;;5012350;28;1155;-72
2023/03/13 09:22:43;;;;;;;;;;;11.80;99.90;;;;;;5022646;28;3481;-72
2023/03/13 09:25:10;;;;;;;;;;;12.00;99.90;;;;;;5010670;28;1102;-72
2023/03/13 09:27:35;;;;;;;;;;;12.00;99.90;;;;;;4994618;28;1089;-72
2023/03/13 09:30:01;;;;;;;;;;;11.90;99.90;;;;;;5003196;28;2296;-72
2023/03/13 09:32:27;;;;;;;;;;;11.80;99.90;;;;;;5016512;28;1622;-72
2023/03/13 09:34:52;;;;;;;;;;;11.80;99.90;;;;;;5005734;28;2645;-72
2023/03/13 09:37:18;;;;;;;;;;;11.80;99.90;;;;;;5017064;28;962;-73
2023/03/13 09:39:44;;;;;;;;;;;11.80;99.90;;;;;;5022682;28;1605;-73
2023/03/13 09:42:15;;;;;;;;;;;11.70;99.90;;;;;;5011181;28;1175;-73
2023/03/13 09:44:58;;;;;;;;;;;11.70;99.90;;;;;;5011892;28;1109;-73
2023/03/13 09:47:32;;;;;;;;;;;11.70;99.90;;;;;;4999718;28;1433;-73
2023/03/13 09:50:01;;;;;;;;;;;11.50;99.90;;;;;;5028016;28;1906;-73
2023/03/13 09:52:30;;;;;;;;;;;11.50;99.90;;;;;;5022687;28;1401;-73
2023/03/13 09:54:57;;;;;;;;;;;11.50;99.90;;;;;;5028178;28;1149;-73
2023/03/13 09:57:27;;;;;;;;;;;11.50;99.90;;;;;;5029368;28;1150;-73
2023/03/13 10:00:01;;;;;;;;;;;11.50;99.90;;;;;;5014552;28;1165;-73
2023/03/13 10:02:29;;;;;;;;;;;11.50;99.90;;;;;;5011044;28;1159;-73
2023/03/13 10:05:02;;;;;;;;;;;11.60;99.90;;;;;;4996995;28;1446;-73
2023/03/13 10:07:28;;;;;;;;;;;11.60;99.90;;;;;;5029309;28;1201;-73
2023/03/13 10:09:54;;;;;;;;;;;11.70;99.90;;;;;;5031101;28;1450;-72
2023/03/13 10:12:21;;;;;;;;;;;11.80;99.90;;;;;;5028588;28;1973;-72
2023/03/13 10:15:02;;;;;;;;;;;12.10;99.90;;;;;;5012757;28;1148;-73
2023/03/13 10:17:38;;;;;;;;;;;12.40;99.90;;;;;;5019419;28;1303;-73
2023/03/13 10:20:22;;;;;;;;;;;12.80;99.90;;;;;;5020279;28;1300;-72
2023/03/13 10:22:51;;;;;;;;;;;12.90;99.90;;;;;;5011703;28;1129;-73
2023/03/13 10:25:16;;;;;;;;;;;13.30;99.90;;;;;;5017993;28;1654;-73
2023/03/13 10:27:43;;;;;;;;;;;13.50;99.90;;;;;;5014662;28;1750;-73
2023/03/13 10:30:19;;;;;;;;;;;13.60;99.90;;;;;;5026595;28;1918;-73
2023/03/13 10:32:44;;;;;;;;;;;13.50;99.90;;;;;;5029256;28;1152;-73
2023/03/13 10:35:11;;;;;;;;;;;13.60;99.90;;;;;;5025497;28;1100;-73
2023/03/13 10:37:42;;;;;;;;;;;13.50;99.90;;;;;;5019623;28;1325;-73
2023/03/13 10:40:11;;;;;;;;;;;13.70;99.90;;;;;;5019948;28;1284;-73
2023/03/13 10:42:41;;;;;;;;;;;13.70;99.90;;;;;;5019533;28;3224;-72
2023/03/13 10:45:13;;;;;;;;;;;13.70;99.90;;;;;;5018975;28;3233;-72
2023/03/13 10:47:39;;;;;;;;;;;13.70;99.90;;;;;;4991818;28;1144;-72
2023/03/13 10:50:04;;;;;;;;;;;14.00;99.90;;;;;;4992961;28;3453;-72
2023/03/13 10:52:32;;;;;;;;;;;14.00;99.90;;;;;;4983962;28;1280;-72
2023/03/13 10:54:59;;;;;;;;;;;14.00;99.90;;;;;;5021667;28;1181;-72
2023/03/13 10:57:28;;;;;;;;;;;14.20;99.90;;;;;;5013575;28;1186;-72
2023/03/13 10:59:54;;;;;;;;;;;14.30;99.90;;;;;;4980429;28;5759;-72
2023/03/13 11:02:24;;;;;;;;;;;14.40;99.90;;;;;;4983298;28;6173;-72
2023/03/13 11:04:52;;;;;;;;;;;14.40;99.90;;;;;;5003423;28;1436;-72
2023/03/13 11:07:21;;;;;;;;;;;14.30;99.90;;;;;;5022284;28;1176;-72
2023/03/13 11:09:58;;;;;;;;;;;14.40;99.90;;;;;;5021718;28;1793;-72
2023/03/13 11:12:23;;;;;;;;;;;14.30;99.90;;;;;;5006425;28;1914;-72
2023/03/13 11:14:55;;;;;;;;;;;14.00;99.90;;;;;;5015066;28;1191;-72
2023/03/13 11:17:35;;;;;;;;;;;14.30;99.90;;;;;;5017827;28;1164;-72
2023/03/13 11:20:06;;;;;;;;;;;14.40;99.90;;;;;;5025698;28;1229;-72
2023/03/13 11:22:49;;;;;;;;;;;14.60;99.90;;;;;;5013379;28;1126;-72
2023/03/13 11:25:19;;;;;;;;;;;14.00;99.90;;;;;;5003976;28;1193;-72
2023/03/13 11:27:50;;;;;;;;;;;14.20;99.90;;;;;;5021710;28;1249;-72
2023/03/13 11:30:34;;;;;;;;;;;14.30;99.90;;;;;;5015337;28;1898;-72
2023/03/13 11:33:01;;;;;;;;;;;14.40;99.90;;;;;;5010517;28;1391;-71
2023/03/13 11:35:36;;;;;;;;;;;14.50;99.90;;;;;;4991211;28;1106;-72
2023/03/13 11:38:06;;;;;;;;;;;15.00;99.90;;;;;;5019278;28;1376;-72
2023/03/13 11:40:32;;;;;;;;;;;14.80;99.90;;;;;;4999854;28;1252;-72
2023/03/13 11:42:57;;;;;;;;;;;14.80;99.90;;;;;;5017019;28;1232;-72
2023/03/13 11:45:38;;;;;;;;;;;14.50;99.90;;;;;;5002474;28;1601;-72
2023/03/13 11:48:15;;;;;;;;;;;14.40;99.90;;;;;;4996731;28;1260;-72
2023/03/13 11:50:57;;;;;;;;;;;14.00;99.90;;;;;;5018566;28;1980;-72
2023/03/13 11:53:37;;;;;;;;;;;13.90;99.90;;;;;;4999645;28;1245;-71
2023/03/13 11:56:12;;;;;;;;;;;13.80;99.90;;;;;;5008748;28;1149;-72
2023/03/13 11:58:47;;;;;;;;;;;14.00;99.90;;;;;;5013973;28;1104;-72
2023/03/13 12:01:15;;;;;;;;;;;13.70;99.90;;;;;;5020400;28;1010;-72
2023/03/13 12:03:46;;;;;;;;;;;14.00;99.90;;;;;;5009062;28;1165;-72
2023/03/13 12:06:20;;;;;;;;;;;14.00;99.90;;;;;;5006475;28;1165;-71
2023/03/13 12:08:48;;;;;;;;;;;14.10;99.90;;;;;;5019117;28;1125;-71
2023/03/13 12:11:15;;;;;;;;;;;14.10;99.90;;;;;;5012846;28;1910;-72
2023/03/13 12:13:45;;;;;;;;;;;14.10;99.90;;;;;;4991259;28;1145;-71
2023/03/13 12:16:13;;;;;;;;;;;14.10;99.90;;;;;;5013852;28;1110;-71
2023/03/13 12:18:39;;;;;;;;;;;14.30;99.90;;;;;;5008303;28;1118;-71
2023/03/13 12:21:11;;;;;;;;;;;14.50;99.90;;;;;;5016233;28;1117;-71
2023/03/13 12:23:38;;;;;;;;;;;14.60;99.90;;;;;;5018306;28;1379;-71
2023/03/13 12:26:06;;;;;;;;;;;15.10;99.90;;;;;;5016188;28;1141;-72
2023/03/13 12:28:36;;;;;;;;;;;15.40;99.90;;;;;;5017009;28;1219;-72
2023/03/13 12:31:06;;;;;;;;;;;15.90;99.90;;;;;;5024151;28;1968;-71
2023/03/13 12:33:35;;;;;;;;;;;15.00;99.90;;;;;;5026545;28;1230;-72
2023/03/13 12:36:04;;;;;;;;;;;15.10;99.90;;;;;;5008794;28;1080;-72
2023/03/13 12:38:36;;;;;;;;;;;15.00;99.90;;;;;;5022533;28;1312;-72
2023/03/13 12:41:20;;;;;;;;;;;14.90;99.90;;;;;;4998070;28;1684;-71
2023/03/13 12:43:47;;;;;;;;;;;15.20;99.90;;;;;;5011565;28;1100;-71
2023/03/13 12:46:17;;;;;;;;;;;16.00;99.90;;;;;;5013018;28;1125;-72
2023/03/13 12:48:52;;;;;;;;;;;16.40;99.90;;;;;;5012691;28;1130;-72
2023/03/13 12:51:21;;;;;;;;;;;16.10;99.90;;;;;;5021880;28;1997;-72
2023/03/13 12:54:07;;;;;;;;;;;15.60;99.90;;;;;;5012148;28;1110;-72
2023/03/13 12:56:33;;;;;;;;;;;15.30;99.90;;;;;;5010516;28;1052;-72
2023/03/13 12:59:05;;;;;;;;;;;15.30;99.90;;;;;;5011478;28;1107;-72
2023/03/13 13:01:34;;;;;;;;;;;14.90;99.90;;;;;;5031037;28;1180;-72
2023/03/13 13:04:04;;;;;;;;;;;14.70;99.90;;;;;;5012773;28;1105;-71
2023/03/13 13:06:49;;;;;;;;;;;14.70;99.90;;;;;;5035963;28;1196;-72
2023/03/13 13:09:19;;;;;;;;;;;15.00;99.90;;;;;;5026199;28;1149;-71
2023/03/13 13:11:46;;;;;;;;;;;15.50;99.90;;;;;;5010723;28;1938;-71
2023/03/13 13:14:15;;;;;;;;;;;16.10;99.90;;;;;;5006988;28;1102;-72
2023/03/13 13:16:42;;;;;;;;;;;16.00;99.90;;;;;;5012346;28;1042;-72
2023/03/13 13:19:32;;;;;;;;;;;15.60;99.90;;;;;;5019793;28;1116;-72
2023/03/13 13:22:17;;;;;;;;;;;15.70;99.90;;;;;;5016426;28;1233;-71
2023/03/13 13:24:50;;;;;;;;;;;16.10;99.90;;;;;;5010737;28;1114;-72
2023/03/13 13:27:31;;;;;;;;;;;16.20;99.90;;;;;;5023004;28;1158;-72
2023/03/13 13:29:58;;;;;;;;;;;16.20;99.90;;;;;;5032458;28;1076;-72
2023/03/13 13:32:32;;;;;;;;;;;15.40;99.90;;;;;;5011412;28;1987;-72
2023/03/13 13:35:05;;;;;;;;;;;14.90;99.90;;;;;;5010849;28;1161;-71
2023/03/13 13:37:31;;;;;;;;;;;15.10;99.90;;;;;;5018090;28;3109;-72
2023/03/13 13:40:15;;;;;;;;;;;15.60;99.90;;;;;;5015369;28;1152;-72
2023/03/13 13:42:52;;;;;;;;;;;15.40;99.90;;;;;;5010794;28;1386;-72
2023/03/13 13:45:29;;;;;;;;;;;15.90;99.90;;;;;;5017369;28;1094;-72
2023/03/13 13:48:14;;;;;;;;;;;16.20;99.90;;;;;;4991852;28;1150;-72
2023/03/13 13:50:59;;;;;;;;;;;16.00;99.90;;;;;;5019185;28;1906;-72
2023/03/13 13:53:30;;;;;;;;;;;15.60;99.90;;;;;;5024521;28;2128;-72
2023/03/13 13:55:57;;;;;;;;;;;15.00;99.90;;;;;;5003892;28;1177;-72
2023/03/13 13:58:26;;;;;;;;;;;15.10;99.90;;;;;;5018375;28;1260;-72
2023/03/13 14:00:54;;;;;;;;;;;15.70;99.90;;;;;;5004499;28;1272;-72
2023/03/13 14:03:23;;;;;;;;;;;15.90;99.90;;;;;;5024546;28;3101;-72
2023/03/13 14:05:52;;;;;;;;;;;16.30;99.90;;;;;;5023990;28;3563;-72
2023/03/13 14:08:23;;;;;;;;;;;16.20;99.90;;;;;;5034894;28;1068;-73
2023/03/13 14:11:04;;;;;;;;;;;15.90;99.90;;;;;;5003461;28;3050;-73
2023/03/13 14:13:29;;;;;;;;;;;15.80;99.90;;;;;;5009763;28;1153;-72
2023/03/13 14:15:55;;;;;;;;;;;15.70;99.90;;;;;;5010312;28;1149;-72
2023/03/13 14:18:23;;;;;;;;;;;15.70;99.90;;;;;;5029795;28;990;-72
2023/03/13 14:20:48;;;;;;;;;;;15.70;99.90;;;;;;5012256;28;1245;-73
2023/03/13 14:23:14;;;;;;;;;;;15.80;99.90;;;;;;5016641;28;3427;-72
2023/03/13 14:25:41;;;;;;;;;;;15.60;99.90;;;;;;4992453;28;951;-72
2023/03/13 14:28:15;;;;;;;;;;;15.60;99.90;;;;;;5023259;28;1150;-73
2023/03/13 14:30:42;;;;;;;;;;;15.20;99.90;;;;;;5021531;28;1983;-72
2023/03/13 14:33:08;;;;;;;;;;;15.20;99.90;;;;;;5010049;28;1094;-73
2023/03/13 14:35:34;;;;;;;;;;;15.50;99.90;;;;;;5009228;28;1114;-72
2023/03/13 14:38:00;;;;;;;;;;;15.70;99.90;;;;;;4996145;28;3255;-72
2023/03/13 14:40:27;;;;;;;;;;;15.80;99.90;;;;;;5018773;28;3461;-73
2023/03/13 14:42:55;;;;;;;;;;;15.80;99.90;;;;;;5028421;28;1455;-72
2023/03/13 14:45:23;;;;;;;;;;;15.80;99.90;;;;;;5011114;28;1114;-72
2023/03/13 14:47:50;;;;;;;;;;;15.60;99.90;;;;;;5017530;28;1113;-72
2023/03/13 14:50:16;;;;;;;;;;;15.60;99.90;;;;;;4991439;28;1972;-72
2023/03/13 14:52:48;;;;;;;;;;;15.50;99.90;;;;;;5009806;28;1102;-74